Paris, TX

11:38 PM CDT on April 27, 2015 (GMT -0500)
Sulphur Springs Municipal | | Change Station
CLOSE
Current Station
Airport
Location: Sulphur Springs,
Elevation: 489 ft
Nearby Weather Stations

Elev 489 ft 33.16 °N, 95.62 °W | Updated 23 minutes ago

Rain
Rain
55 °F
Feels Like 55 °F
N
14
Wind Variable Wind from NNE
Gusts 20 mph

Today
High -- | Low -- °F
--% Chance of Precip.
Yesterday
High -- | Low -- °F
Precip. -- in
6:37 AM 8:02 PM
Waxing Gibbous, 70% visible
Pressure 29.94 in
Visibility 7.0 miles
Clouds Scattered Clouds 5500 ft
Overcast 9500 ft
Dew Point 53 °F
Humidity 92%
Rainfall 0.30 in
Snow Depth Not available.
UV 0 out of 12
Pollen 3.70 out of 12
Air Quality Not available.
Flu Activity Local Activity
METAR KSLR 280415Z AUTO 03012G17KT 7SM RA SCT055 OVC095 13/12 A2994 RMK AO2 LTG DSNT S P0002 T01300117

More Conditions Fewer Conditions

Pressure 29.94 in
Visibility 7.0 miles
Clouds Scattered Clouds 5500 ft
Overcast 9500 ft
Dew Point 53 °F
Humidity 92%
Rainfall 0.30 in
Snow Depth Not available.
UV 0 out of 12
Pollen 3.70 out of 12
Air Quality Not available.
Flu Activity Local Activity
METAR KSLR 280415Z AUTO 03012G17KT 7SM RA SCT055 OVC095 13/12 A2994 RMK AO2 LTG DSNT S P0002 T01300117

More Conditions Fewer Conditions

Nowcast | as of 11:12 PM CDT on April 27, 2015

A band of showers and thunderstorms extended east of a Sherman to Terrell to Hearne line at 11 PM. This line of storms will move east at 20 mph. Locally heavy rain may result in some street and stream flooding. Scattered showers and a few thunderstorms will occur across the rest of north and central Texas through 3 am. Brief heavy rain and cloud to ground lightning will accompany some of these storms. Elsewhere...skies will remain partly to mostly cloudy with temperatures slowly falling into the upper 40s north to the mid 50s to 4 am.

×

10-Day Weather Forecast

Almanac

Astronomy

Apr. 27, 2015 Rise Set
Actual Time
Civil Twilight
Nautical Twilight
Astronomical Twilight
Moon
Length of Visible Light
Length of Day
Tomorrow will be .
, % of the Moon is Illuminated

Today's Extremes

State Highs State Lows

Community

WunderPhotos

Upload Photos

1,817,582 photos uploaded!

WunderBlogs® & News

Nearby

Air Quality

  Air Quality AQ Index Pollutant
Not available.

Snow Depth

Station Depth Elevation

Earthquake Activity

City Distance Mag. Time & Date
Minimum magnitude displayed is 2.5.

Coastal Water Temperatures

Place Temperature

Stations

Nearby Weather Stations

Station Location Temp. Windchill Dew Point Humidity Wind Precip. Elev Updated Type